sensor_id;sensor_type;location;lat;lon;timestamp;pressure;altitude;pressure_sealevel;temperature;humidity
79481;BME280;68944;48.262;14.208;2023-09-07T17:35:20;98642.25;;;24.55;46.35
79481;BME280;68944;48.262;14.208;2023-09-07T17:37:45;98650.13;;;24.65;45.96
79481;BME280;68944;48.262;14.208;2023-09-07T17:40:11;98650.47;;;24.50;46.25
79481;BME280;68944;48.262;14.208;2023-09-07T17:42:39;98656.25;;;24.34;46.89
79481;BME280;68944;48.262;14.208;2023-09-07T17:45:05;98657.44;;;24.28;47.45
79481;BME280;68944;48.262;14.208;2023-09-07T17:47:30;98656.31;;;24.15;47.61
79481;BME280;68944;48.262;14.208;2023-09-07T17:49:56;98655.75;;;24.04;48.08
79481;BME280;68944;48.262;14.208;2023-09-07T17:52:21;98661.16;;;24.04;47.79
79481;BME280;68944;48.262;14.208;2023-09-07T17:54:49;98656.75;;;23.94;48.37
79481;BME280;68944;48.262;14.208;2023-09-07T17:57:15;98658.84;;;23.97;48.50
79481;BME280;68944;48.262;14.208;2023-09-07T17:59:40;98666.97;;;23.83;49.04
79481;BME280;68944;48.262;14.208;2023-09-07T18:02:21;98664.53;;;23.81;49.09
79481;BME280;68944;48.262;14.208;2023-09-07T18:04:53;98656.94;;;23.83;48.68
79481;BME280;68944;48.262;14.208;2023-09-07T18:07:20;98671.22;;;23.56;49.46
79481;BME280;68944;48.262;14.208;2023-09-07T18:09:45;98676.69;;;23.36;50.01
79481;BME280;68944;48.262;14.208;2023-09-07T18:12:11;98673.47;;;23.34;49.51
79481;BME280;68944;48.262;14.208;2023-09-07T18:14:37;98671.56;;;22.82;50.56
79481;BME280;68944;48.262;14.208;2023-09-07T18:17:03;98667.53;;;22.79;50.70
79481;BME280;68944;48.262;14.208;2023-09-07T18:19:29;98674.75;;;23.03;50.37
79481;BME280;68944;48.262;14.208;2023-09-07T18:21:55;98678.53;;;22.64;51.67
79481;BME280;68944;48.262;14.208;2023-09-07T18:24:20;98677.44;;;22.45;51.93
79481;BME280;68944;48.262;14.208;2023-09-07T18:26:45;98676.22;;;22.57;51.72
79481;BME280;68944;48.262;14.208;2023-09-07T18:29:15;98683.50;;;22.37;52.60
79481;BME280;68944;48.262;14.208;2023-09-07T18:31:42;98683.00;;;22.35;52.72
79481;BME280;68944;48.262;14.208;2023-09-07T18:34:08;98685.50;;;22.26;53.22
79481;BME280;68944;48.262;14.208;2023-09-07T18:36:33;98679.72;;;22.13;53.46
79481;BME280;68944;48.262;14.208;2023-09-07T18:38:59;98680.34;;;22.05;53.89
79481;BME280;68944;48.262;14.208;2023-09-07T18:41:25;98680.94;;;22.02;53.96
79481;BME280;68944;48.262;14.208;2023-09-07T18:43:50;98680.66;;;22.03;53.62
79481;BME280;68944;48.262;14.208;2023-09-07T18:46:16;98680.44;;;22.00;54.17
79481;BME280;68944;48.262;14.208;2023-09-07T18:48:41;98684.44;;;21.73;54.83
79481;BME280;68944;48.262;14.208;2023-09-07T18:51:07;98674.91;;;22.10;54.28
79481;BME280;68944;48.262;14.208;2023-09-07T18:53:34;98681.13;;;21.81;55.37
79481;BME280;68944;48.262;14.208;2023-09-07T18:56:07;98683.63;;;22.02;55.00
79481;BME280;68944;48.262;14.208;2023-09-07T18:58:34;98676.81;;;21.80;55.33
79481;BME280;68944;48.262;14.208;2023-09-07T19:01:00;98695.50;;;22.01;55.13
79481;BME280;68944;48.262;14.208;2023-09-07T19:03:26;98686.44;;;21.91;55.37
79481;BME280;68944;48.262;14.208;2023-09-07T19:05:51;98689.25;;;21.51;56.46
79481;BME280;68944;48.262;14.208;2023-09-07T19:08:17;98683.13;;;21.70;55.45
79481;BME280;68944;48.262;14.208;2023-09-07T19:10:46;98681.13;;;21.86;55.12
79481;BME280;68944;48.262;14.208;2023-09-07T19:13:12;98683.75;;;21.62;55.59
79481;BME280;68944;48.262;14.208;2023-09-07T19:15:37;98685.81;;;21.40;56.33
79481;BME280;68944;48.262;14.208;2023-09-07T19:18:06;98690.16;;;21.36;56.99
79481;BME280;68944;48.262;14.208;2023-09-07T19:20:31;98692.81;;;21.41;56.81
79481;BME280;68944;48.262;14.208;2023-09-07T19:22:57;98684.25;;;21.34;57.21
79481;BME280;68944;48.262;14.208;2023-09-07T19:25:23;98694.88;;;21.49;57.06
79481;BME280;68944;48.262;14.208;2023-09-07T19:27:48;98690.41;;;21.40;57.16
79481;BME280;68944;48.262;14.208;2023-09-07T19:30:14;98687.88;;;21.19;57.25
79481;BME280;68944;48.262;14.208;2023-09-07T19:32:39;98687.94;;;21.43;56.87
79481;BME280;68944;48.262;14.208;2023-09-07T19:35:05;98682.44;;;21.24;57.55
79481;BME280;68944;48.262;14.208;2023-09-07T19:37:31;98688.78;;;21.03;58.04
79481;BME280;68944;48.262;14.208;2023-09-07T19:39:57;98691.59;;;20.83;58.63
79481;BME280;68944;48.262;14.208;2023-09-07T19:42:23;98687.50;;;20.96;58.39
79481;BME280;68944;48.262;14.208;2023-09-07T19:44:49;98680.28;;;20.80;59.19
79481;BME280;68944;48.262;14.208;2023-09-07T19:47:15;98687.41;;;20.61;59.85
79481;BME280;68944;48.262;14.208;2023-09-07T19:49:41;98689.81;;;20.62;59.75
79481;BME280;68944;48.262;14.208;2023-09-07T19:52:07;98688.69;;;20.74;59.92
79481;BME280;68944;48.262;14.208;2023-09-07T19:54:33;98679.44;;;20.40;60.59
79481;BME280;68944;48.262;14.208;2023-09-07T19:56:58;98688.88;;;20.37;60.70
79481;BME280;68944;48.262;14.208;2023-09-07T19:59:24;98676.81;;;20.24;61.28
79481;BME280;68944;48.262;14.208;2023-09-07T20:01:57;98680.06;;;20.16;61.76
79481;BME280;68944;48.262;14.208;2023-09-07T20:04:24;98677.94;;;20.07;62.12
79481;BME280;68944;48.262;14.208;2023-09-07T20:06:51;98676.31;;;20.06;62.20
79481;BME280;68944;48.262;14.208;2023-09-07T20:09:18;98679.03;;;20.11;62.62
79481;BME280;68944;48.262;14.208;2023-09-07T20:11:46;98675.22;;;20.23;61.78
79481;BME280;68944;48.262;14.208;2023-09-07T20:14:12;98683.28;;;20.18;61.89
79481;BME280;68944;48.262;14.208;2023-09-07T20:16:38;98672.28;;;20.14;62.33
79481;BME280;68944;48.262;14.208;2023-09-07T20:19:03;98682.78;;;20.05;62.99
79481;BME280;68944;48.262;14.208;2023-09-07T20:21:29;98670.66;;;20.08;62.41
79481;BME280;68944;48.262;14.208;2023-09-07T20:23:55;98669.13;;;19.81;63.66
79481;BME280;68944;48.262;14.208;2023-09-07T20:26:21;98674.72;;;20.00;63.34
79481;BME280;68944;48.262;14.208;2023-09-07T20:28:47;98674.31;;;20.43;61.31
79481;BME280;68944;48.262;14.208;2023-09-07T20:31:14;98674.59;;;20.42;61.81
79481;BME280;68944;48.262;14.208;2023-09-07T20:33:40;98667.34;;;20.42;61.01
79481;BME280;68944;48.262;14.208;2023-09-07T20:36:05;98670.13;;;20.06;63.10
79481;BME280;68944;48.262;14.208;2023-09-07T20:38:33;98674.69;;;20.21;62.59
79481;BME280;68944;48.262;14.208;2023-09-07T20:40:58;98668.50;;;20.15;62.56
79481;BME280;68944;48.262;14.208;2023-09-07T20:43:25;98666.34;;;20.17;62.54
79481;BME280;68944;48.262;14.208;2023-09-07T20:45:52;98658.84;;;20.14;62.56
79481;BME280;68944;48.262;14.208;2023-09-07T20:48:18;98662.88;;;20.06;62.39
79481;BME280;68944;48.262;14.208;2023-09-07T20:50:44;98660.72;;;20.14;62.73
79481;BME280;68944;48.262;14.208;2023-09-07T20:53:09;98662.44;;;19.62;64.95
79481;BME280;68944;48.262;14.208;2023-09-07T20:55:35;98659.78;;;19.52;64.98
79481;BME280;68944;48.262;14.208;2023-09-07T20:58:01;98656.81;;;19.48;64.76
79481;BME280;68944;48.262;14.208;2023-09-07T21:00:26;98658.72;;;19.42;65.93
79481;BME280;68944;48.262;14.208;2023-09-07T21:02:52;98657.63;;;19.38;65.55
79481;BME280;68944;48.262;14.208;2023-09-07T21:05:17;98655.22;;;19.37;66.04
79481;BME280;68944;48.262;14.208;2023-09-07T21:07:43;98659.25;;;19.29;65.68
79481;BME280;68944;48.262;14.208;2023-09-07T21:10:09;98658.19;;;19.35;65.51
79481;BME280;68944;48.262;14.208;2023-09-07T21:12:37;98653.06;;;19.28;65.94
79481;BME280;68944;48.262;14.208;2023-09-07T21:15:03;98660.31;;;19.12;67.02
79481;BME280;68944;48.262;14.208;2023-09-07T21:17:31;98647.94;;;19.11;67.22
79481;BME280;68944;48.262;14.208;2023-09-07T21:19:57;98658.16;;;18.98;67.78
79481;BME280;68944;48.262;14.208;2023-09-07T21:22:25;98659.75;;;18.99;67.99
79481;BME280;68944;48.262;14.208;2023-09-07T21:24:50;98662.44;;;18.99;67.92
79481;BME280;68944;48.262;14.208;2023-09-07T21:27:16;98655.97;;;19.06;67.03
79481;BME280;68944;48.262;14.208;2023-09-07T21:29:41;98652.22;;;19.07;67.53
79481;BME280;68944;48.262;14.208;2023-09-07T21:32:07;98645.25;;;19.11;67.23
79481;BME280;68944;48.262;14.208;2023-09-07T21:34:32;98637.47;;;19.09;66.76
79481;BME280;68944;48.262;14.208;2023-09-07T21:36:58;98649.00;;;18.99;67.73
79481;BME280;68944;48.262;14.208;2023-09-07T21:39:23;98648.47;;;18.97;67.57
79481;BME280;68944;48.262;14.208;2023-09-07T21:41:51;98653.81;;;18.92;68.16
79481;BME280;68944;48.262;14.208;2023-09-07T21:44:21;98651.16;;;19.03;67.17
79481;BME280;68944;48.262;14.208;2023-09-07T21:46:47;98646.03;;;19.01;67.21
79481;BME280;68944;48.262;14.208;2023-09-07T21:49:14;98634.78;;;19.04;67.20
79481;BME280;68944;48.262;14.208;2023-09-07T21:51:40;98634.50;;;18.90;68.05
79481;BME280;68944;48.262;14.208;2023-09-07T21:54:07;98630.47;;;18.93;67.67
79481;BME280;68944;48.262;14.208;2023-09-07T21:56:34;98634.50;;;18.95;67.34
79481;BME280;68944;48.262;14.208;2023-09-07T21:59:00;98639.88;;;18.95;67.36
79481;BME280;68944;48.262;14.208;2023-09-07T22:01:26;98636.66;;;18.93;67.46
79481;BME280;68944;48.262;14.208;2023-09-07T22:03:51;98637.72;;;18.97;67.06
79481;BME280;68944;48.262;14.208;2023-09-07T22:06:20;98637.72;;;18.92;67.28
79481;BME280;68944;48.262;14.208;2023-09-07T22:08:45;98641.50;;;18.91;67.54
79481;BME280;68944;48.262;14.208;2023-09-07T22:11:11;98631.81;;;18.90;67.36
79481;BME280;68944;48.262;14.208;2023-09-07T22:13:36;98639.88;;;18.95;67.46
79481;BME280;68944;48.262;14.208;2023-09-07T22:16:02;98640.97;;;18.89;67.15
79481;BME280;68944;48.262;14.208;2023-09-07T22:18:27;98642.00;;;18.88;67.24
79481;BME280;68944;48.262;14.208;2023-09-07T22:20:54;98642.00;;;18.83;67.72
79481;BME280;68944;48.262;14.208;2023-09-07T22:23:19;98635.03;;;18.76;68.07
79481;BME280;68944;48.262;14.208;2023-09-07T22:25:46;98634.22;;;18.76;68.22
79481;BME280;68944;48.262;14.208;2023-09-07T22:28:13;98634.50;;;18.74;68.46
79481;BME280;68944;48.262;14.208;2023-09-07T22:30:39;98637.72;;;18.82;67.97
79481;BME280;68944;48.262;14.208;2023-09-07T22:33:08;98637.72;;;18.87;67.92
79481;BME280;68944;48.262;14.208;2023-09-07T22:35:33;98640.94;;;18.79;68.14
79481;BME280;68944;48.262;14.208;2023-09-07T22:37:59;98638.00;;;18.80;67.68
79481;BME280;68944;48.262;14.208;2023-09-07T22:40:25;98639.56;;;18.76;68.24
79481;BME280;68944;48.262;14.208;2023-09-07T22:42:51;98632.34;;;18.66;68.41
79481;BME280;68944;48.262;14.208;2023-09-07T22:45:16;98627.50;;;18.63;68.45
79481;BME280;68944;48.262;14.208;2023-09-07T22:47:42;98632.31;;;18.61;68.86
79481;BME280;68944;48.262;14.208;2023-09-07T22:50:08;98623.13;;;18.41;69.95
79481;BME280;68944;48.262;14.208;2023-09-07T22:52:34;98627.19;;;18.38;69.98
79481;BME280;68944;48.262;14.208;2023-09-07T22:55:06;98627.69;;;18.35;69.94
79481;BME280;68944;48.262;14.208;2023-09-07T22:57:33;98628.25;;;18.42;70.24
79481;BME280;68944;48.262;14.208;2023-09-07T22:59:59;98624.22;;;18.40;69.95
79481;BME280;68944;48.262;14.208;2023-09-07T23:02:26;98630.09;;;18.26;71.01
79481;BME280;68944;48.262;14.208;2023-09-07T23:04:54;98625.53;;;18.27;70.50
79481;BME280;68944;48.262;14.208;2023-09-07T23:07:20;98615.66;;;18.43;69.64
79481;BME280;68944;48.262;14.208;2023-09-07T23:09:46;98623.16;;;18.36;70.35
79481;BME280;68944;48.262;14.208;2023-09-07T23:12:13;98621.25;;;18.31;70.45
79481;BME280;68944;48.262;14.208;2023-09-07T23:14:39;98623.69;;;18.43;69.69
79481;BME280;68944;48.262;14.208;2023-09-07T23:17:05;98621.78;;;18.28;70.05
79481;BME280;68944;48.262;14.208;2023-09-07T23:19:31;98629.03;;;18.33;69.47
79481;BME280;68944;48.262;14.208;2023-09-07T23:21:56;98621.25;;;18.36;69.58
79481;BME280;68944;48.262;14.208;2023-09-07T23:24:24;98624.75;;;18.42;68.74
79481;BME280;68944;48.262;14.208;2023-09-07T23:26:50;98628.47;;;18.30;69.27
79481;BME280;68944;48.262;14.208;2023-09-07T23:29:18;98621.78;;;18.28;69.87
79481;BME280;68944;48.262;14.208;2023-09-07T23:31:44;98619.34;;;18.31;69.79
79481;BME280;68944;48.262;14.208;2023-09-07T23:34:10;98618.81;;;18.29;69.34
79481;BME280;68944;48.262;14.208;2023-09-07T23:36:36;98619.34;;;18.26;69.62
79481;BME280;68944;48.262;14.208;2023-09-07T23:39:03;98607.56;;;18.33;69.62
79481;BME280;68944;48.262;14.208;2023-09-07T23:41:29;98612.38;;;18.25;69.63
79481;BME280;68944;48.262;14.208;2023-09-07T23:43:55;98610.41;;;18.15;69.70
79481;BME280;68944;48.262;14.208;2023-09-07T23:46:21;98618.72;;;18.08;69.94
79481;BME280;68944;48.262;14.208;2023-09-07T23:48:46;98614.41;;;18.02;70.45
79481;BME280;68944;48.262;14.208;2023-09-07T23:51:12;98611.25;;;18.11;69.95
79481;BME280;68944;48.262;14.208;2023-09-07T23:53:38;98606.41;;;18.18;69.27
79481;BME280;68944;48.262;14.208;2023-09-07T23:56:03;98609.09;;;18.18;69.13
79481;BME280;68944;48.262;14.208;2023-09-07T23:58:29;98623.56;;;18.12;70.28
